createdAt,value
2018-09-04T00:00:32.317Z,97910.69
2018-09-04T00:03:00.516Z,97914.89
2018-09-04T00:05:28.825Z,97913.50
2018-09-04T00:07:57.014Z,97910.51
2018-09-04T00:10:25.210Z,97914.34
2018-09-04T00:12:53.412Z,97911.72
2018-09-04T00:15:21.710Z,97909.99
2018-09-04T00:17:49.905Z,97910.56
2018-09-04T00:20:18.091Z,97908.15
2018-09-04T00:22:46.283Z,97905.73
2018-09-04T00:25:14.464Z,97904.61
2018-09-04T00:27:42.654Z,97912.34
2018-09-04T00:30:10.893Z,97901.19
2018-09-04T00:32:39.090Z,97909.73
2018-09-04T00:35:07.277Z,97903.25
2018-09-04T00:37:35.505Z,97902.53
2018-09-04T00:40:03.721Z,97900.95
2018-09-04T00:42:31.913Z,97894.66
2018-09-04T00:45:00.124Z,97897.98
2018-09-04T00:47:28.407Z,97900.95
2018-09-04T00:49:56.601Z,97910.08
2018-09-04T00:52:24.829Z,97906.38
2018-09-04T00:54:53.045Z,97904.20
2018-09-04T00:57:21.233Z,97905.73
2018-09-04T00:59:49.456Z,97907.41
2018-09-04T01:02:17.737Z,97905.57
2018-09-04T01:04:46.613Z,97910.08
2018-09-04T01:07:14.912Z,97906.86
2018-09-04T01:09:43.120Z,97912.99
2018-09-04T01:12:11.330Z,97904.45
2018-09-04T01:14:39.509Z,97912.16
2018-09-04T01:17:07.813Z,97908.27
2018-09-04T01:19:36.044Z,97911.89
2018-09-04T01:22:04.295Z,97912.13
2018-09-04T01:24:32.498Z,97912.25
2018-09-04T01:27:00.746Z,97898.27
2018-09-04T01:29:29.009Z,97910.66
2018-09-04T01:31:57.301Z,97912.61
2018-09-04T01:34:25.485Z,97910.77
2018-09-04T01:36:53.761Z,97913.20
2018-09-04T01:39:21.961Z,97911.33
2018-09-04T01:41:50.265Z,97919.55
2018-09-04T01:44:18.570Z,97923.02
2018-09-04T01:46:46.821Z,97914.45
2018-09-04T01:49:15.109Z,97917.91
2018-09-04T01:51:43.421Z,97921.39
2018-09-04T01:54:11.705Z,97914.68
2018-09-04T01:56:39.895Z,97907.19
2018-09-04T01:59:08.085Z,97911.81
2018-09-04T02:01:36.782Z,97907.33
2018-09-04T02:04:05.186Z,97910.32
2018-09-04T02:06:33.377Z,97910.68
2018-09-04T02:09:01.637Z,97913.45
2018-09-04T02:11:29.829Z,97911.23
2018-09-04T02:13:58.026Z,97908.00
2018-09-04T02:16:26.301Z,97915.22
2018-09-04T02:18:54.568Z,97906.31
2018-09-04T02:21:22.788Z,97910.13
2018-09-04T02:23:50.970Z,97902.83
2018-09-04T02:26:19.166Z,97904.47
2018-09-04T02:28:47.428Z,97904.23
2018-09-04T02:31:15.737Z,97906.33
2018-09-04T02:33:43.926Z,97905.41
2018-09-04T02:36:12.102Z,97901.83
2018-09-04T02:38:40.390Z,97901.73
2018-09-04T02:41:08.849Z,97904.65
2018-09-04T02:43:37.045Z,97891.36
2018-09-04T02:46:05.527Z,97891.92
2018-09-04T02:48:33.717Z,97900.49
2018-09-04T02:51:01.980Z,97908.83
2018-09-04T02:53:30.162Z,97908.36
2018-09-04T02:55:58.345Z,97907.22
2018-09-04T02:58:26.605Z,97907.91
2018-09-04T03:00:54.810Z,97908.36
2018-09-04T03:03:23.028Z,97907.69
2018-09-04T03:05:51.226Z,97907.91
2018-09-04T03:08:19.426Z,97907.44
2018-09-04T03:10:47.629Z,97898.19
2018-09-04T03:13:15.873Z,97900.85
2018-09-04T03:15:44.126Z,97891.16
2018-09-04T03:18:12.309Z,97898.09
2018-09-04T03:20:40.518Z,97903.50
2018-09-04T03:23:08.904Z,97907.94
2018-09-04T03:25:37.074Z,97905.81
2018-09-04T03:28:05.380Z,97912.64
2018-09-04T03:30:33.552Z,97916.12
2018-09-04T03:33:01.760Z,97912.41
2018-09-04T03:35:30.030Z,97906.61
2018-09-04T03:37:58.526Z,97887.08
2018-09-04T03:40:26.733Z,97907.64
2018-09-04T03:42:55.022Z,97903.88
2018-09-04T03:45:23.281Z,97910.90
2018-09-04T03:47:51.562Z,97908.84
2018-09-04T03:50:19.854Z,97919.69
2018-09-04T03:52:48.115Z,97920.28
2018-09-04T03:55:16.341Z,97932.66
2018-09-04T03:57:44.538Z,97928.00
2018-09-04T04:00:12.765Z,97938.42
2018-09-04T04:02:41.166Z,97940.05
2018-09-04T04:05:09.366Z,97942.58
2018-09-04T04:07:37.675Z,97941.50
2018-09-04T04:10:06.173Z,97940.94
2018-09-04T04:12:34.370Z,97935.20
2018-09-04T04:15:02.553Z,97935.37
2018-09-04T04:17:30.774Z,97931.67
2018-09-04T04:19:59.021Z,97929.68
2018-09-04T04:22:27.303Z,97931.42
2018-09-04T04:24:55.527Z,97935.69
2018-09-04T04:27:23.750Z,97938.50
2018-09-04T04:29:51.969Z,97936.58
2018-09-04T04:32:20.237Z,97936.50
2018-09-04T04:34:48.646Z,97946.89
2018-09-04T04:37:16.964Z,97938.50
2018-09-04T04:39:45.218Z,97931.94
2018-09-04T04:42:13.501Z,97945.92
2018-09-04T04:44:41.803Z,97944.54
2018-09-04T04:47:10.038Z,97950.09
2018-09-04T04:49:38.214Z,97950.55
2018-09-04T04:52:06.411Z,97953.42
2018-09-04T04:54:34.598Z,97944.18
2018-09-04T04:57:02.814Z,97952.75
2018-09-04T04:59:31.000Z,97954.81
2018-09-04T05:01:59.193Z,97963.95
2018-09-04T05:04:28.814Z,97964.73
2018-09-04T05:06:57.022Z,97963.80
2018-09-04T05:09:25.239Z,97952.23
2018-09-04T05:11:53.432Z,97951.31
2018-09-04T05:14:21.647Z,97955.48
2018-09-04T05:16:49.838Z,97952.23
2018-09-04T05:19:18.017Z,97953.17
2018-09-04T05:21:46.251Z,97960.45
2018-09-04T05:24:14.455Z,97961.28
2018-09-04T05:26:42.678Z,97971.20
2018-09-04T05:29:10.858Z,97973.97
2018-09-04T05:31:44.191Z,97974.08
2018-09-04T05:34:12.434Z,97969.34
2018-09-04T05:36:40.730Z,97971.13
2018-09-04T05:39:09.857Z,97970.11
2018-09-04T05:41:38.050Z,97973.42
2018-09-04T05:44:06.397Z,97968.33
2018-09-04T05:46:39.962Z,97977.42
2018-09-04T05:49:08.345Z,97976.34
2018-09-04T05:51:36.530Z,97981.57
2018-09-04T05:54:04.741Z,97979.06
2018-09-04T05:56:33.027Z,97993.72
2018-09-04T05:59:01.237Z,97988.63
2018-09-04T06:01:30.058Z,97993.02
2018-09-04T06:03:58.240Z,97998.34
2018-09-04T06:06:26.450Z,98002.58
2018-09-04T06:08:54.633Z,98003.87
2018-09-04T06:11:22.837Z,98008.11
2018-09-04T06:13:51.088Z,98010.92
2018-09-04T06:16:19.217Z,98006.23
2018-09-04T06:18:47.429Z,97999.25
2018-09-04T06:21:15.617Z,98009.44
2018-09-04T06:23:43.846Z,98013.75
2018-09-04T06:26:12.033Z,98011.48
2018-09-04T06:28:40.242Z,98013.42
2018-09-04T06:31:08.437Z,98014.45
2018-09-04T06:33:36.733Z,98022.06
2018-09-04T06:36:05.459Z,98017.89
2018-09-04T06:38:33.687Z,98019.72
2018-09-04T06:41:01.874Z,98011.70
2018-09-04T06:43:30.066Z,98022.35
2018-09-04T06:45:58.325Z,98016.66
2018-09-04T06:48:26.550Z,98010.34
2018-09-04T06:50:54.733Z,98005.30
2018-09-04T06:53:22.925Z,98007.47
2018-09-04T06:55:51.204Z,98015.02
2018-09-04T06:58:19.370Z,98014.56
2018-09-04T07:00:47.553Z,98021.16
2018-09-04T07:03:15.745Z,98010.69
2018-09-04T07:05:43.938Z,98008.02
2018-09-04T07:08:12.154Z,98012.77
2018-09-04T07:10:40.385Z,98013.72
2018-09-04T07:16:07.498Z,98008.23
2018-09-04T07:18:35.749Z,98012.75
2018-09-04T07:21:03.966Z,98018.55
2018-09-04T07:23:32.187Z,98016.09
2018-09-04T07:26:00.405Z,98014.03
2018-09-04T07:28:28.585Z,98013.98
2018-09-04T07:30:56.821Z,98008.18
2018-09-04T07:33:25.065Z,98003.39
2018-09-04T07:35:53.249Z,98011.72
2018-09-04T07:38:21.426Z,98009.89
2018-09-04T07:40:49.613Z,98018.91
2018-09-04T07:43:17.819Z,98017.69
2018-09-04T07:45:46.067Z,98013.65
2018-09-04T07:48:14.299Z,98015.69
2018-09-04T07:50:42.488Z,98016.94
2018-09-04T07:53:10.689Z,98013.07
2018-09-04T07:55:38.950Z,98013.51
2018-09-04T07:58:07.166Z,98014.75
2018-09-04T08:00:35.934Z,98011.05
2018-09-04T08:03:04.120Z,98004.69
2018-09-04T08:05:32.346Z,98005.06
2018-09-04T08:08:00.544Z,98003.92
2018-09-04T08:10:33.259Z,98007.22
2018-09-04T08:13:01.851Z,98004.57
2018-09-04T08:15:30.073Z,98004.27
2018-09-04T08:17:58.309Z,97999.02
2018-09-04T08:20:26.858Z,97992.12
2018-09-04T08:22:55.949Z,97996.95
2018-09-04T08:25:25.038Z,97995.94
2018-09-04T08:27:53.229Z,97992.77
2018-09-04T08:30:21.417Z,97993.24
2018-09-04T08:32:49.782Z,97985.56
2018-09-04T08:35:18.023Z,97987.25
2018-09-04T08:37:46.198Z,97987.25
2018-09-04T08:40:14.394Z,97985.09
2018-09-04T08:42:42.574Z,97984.22
2018-09-04T08:45:10.778Z,97982.84
2018-09-04T08:47:38.981Z,97993.09
2018-09-04T08:50:07.186Z,97992.27
2018-09-04T08:52:35.422Z,97995.36
2018-09-04T08:55:03.637Z,97989.48
2018-09-04T08:57:31.878Z,97982.08
2018-09-04T09:00:00.104Z,97984.82
2018-09-04T09:02:28.321Z,97989.16
2018-09-04T09:04:56.617Z,97983.52
2018-09-04T09:07:24.902Z,97974.75
2018-09-04T09:09:53.103Z,97972.71
2018-09-04T09:12:21.350Z,97967.05
2018-09-04T09:14:49.529Z,97972.97
2018-09-04T09:17:17.741Z,97968.39
2018-09-04T09:19:45.970Z,97965.41
2018-09-04T09:22:14.158Z,97959.35
2018-09-04T09:24:42.392Z,97965.02
2018-09-04T09:27:11.193Z,97960.59
2018-09-04T09:29:39.401Z,97967.63
2018-09-04T09:32:07.594Z,97970.25
2018-09-04T09:34:35.830Z,97975.98
2018-09-04T09:37:04.051Z,97978.98
2018-09-04T09:39:32.213Z,97976.45
2018-09-04T09:42:00.440Z,97971.73
2018-09-04T09:44:28.681Z,97968.41
2018-09-04T09:47:01.706Z,97963.41
2018-09-04T09:49:30.752Z,97966.34
2018-09-04T09:52:00.003Z,97950.84
2018-09-04T09:54:28.364Z,97958.36
2018-09-04T09:56:56.705Z,97957.09
2018-09-04T09:59:24.965Z,97953.78
2018-09-04T10:01:53.171Z,97954.45
2018-09-04T10:04:21.607Z,97953.44
2018-09-04T10:06:49.824Z,97951.91
2018-09-04T10:09:21.005Z,97957.98
2018-09-04T10:11:49.418Z,97951.39
2018-09-04T10:14:17.698Z,97957.40
2018-09-04T10:16:46.075Z,97955.41
2018-09-04T10:19:14.356Z,97948.13
2018-09-04T10:21:42.637Z,97952.77
2018-09-04T10:24:10.850Z,97949.05
2018-09-04T10:26:39.105Z,97947.66
2018-09-04T10:29:07.310Z,97946.29
2018-09-04T10:31:35.594Z,97949.75
2018-09-04T10:34:03.834Z,97943.31
2018-09-04T10:36:32.042Z,97942.77
2018-09-04T10:39:05.839Z,97945.96
2018-09-04T10:41:34.117Z,97944.62
2018-09-04T10:44:02.390Z,97950.74
2018-09-04T10:46:30.563Z,97949.16
2018-09-04T10:48:58.838Z,97941.70
2018-09-04T10:51:27.087Z,97947.53
2018-09-04T10:53:55.352Z,97941.41
2018-09-04T10:56:23.717Z,97942.44
2018-09-04T10:58:51.907Z,97948.43
2018-09-04T11:01:20.128Z,97941.41
2018-09-04T11:03:48.313Z,97947.67
2018-09-04T11:06:16.507Z,97937.81
2018-09-04T11:08:44.733Z,97933.98
2018-09-04T11:11:12.910Z,97938.83
2018-09-04T11:13:41.097Z,97940.63
2018-09-04T11:16:09.285Z,97939.03
2018-09-04T11:18:37.494Z,97947.25
2018-09-04T11:21:05.926Z,97940.01
2018-09-04T11:23:34.152Z,97942.36
2018-09-04T11:26:02.297Z,97942.36
2018-09-04T11:28:30.866Z,97941.59
2018-09-04T11:30:59.056Z,97940.19
2018-09-04T11:33:27.315Z,97937.38
2018-09-04T11:35:55.514Z,97932.81
2018-09-04T11:38:23.730Z,97928.18
2018-09-04T11:40:51.946Z,97925.97
2018-09-04T11:43:20.134Z,97921.97
2018-09-04T11:45:48.334Z,97919.17
2018-09-04T11:48:17.737Z,97919.16
2018-09-04T11:50:46.066Z,97918.38
2018-09-04T11:53:14.409Z,97911.11
2018-09-04T11:55:42.607Z,97910.94
2018-09-04T11:58:10.831Z,97916.37
2018-09-04T12:00:42.222Z,97921.17
2018-09-04T12:03:11.792Z,97927.98
2018-09-04T12:05:40.075Z,97929.80
2018-09-04T12:08:08.242Z,97929.81
2018-09-04T12:10:36.468Z,97919.36
2018-09-04T12:13:04.675Z,97922.16
2018-09-04T12:15:32.874Z,97926.38
2018-09-04T12:18:01.077Z,97930.20
2018-09-04T12:20:42.732Z,97928.39
2018-09-04T12:23:11.102Z,97928.59
2018-09-04T12:25:39.720Z,97929.78
2018-09-04T12:28:07.949Z,97931.00
2018-09-04T12:30:36.218Z,97932.22
2018-09-04T12:33:04.643Z,97921.55
2018-09-04T12:35:33.765Z,97922.37
2018-09-04T12:38:02.381Z,97917.35
2018-09-04T12:40:30.881Z,97917.09
2018-09-04T12:43:00.881Z,97925.15
2018-09-04T12:45:29.246Z,97922.73
2018-09-04T12:47:57.476Z,97919.16
2018-09-04T12:50:25.621Z,97918.35
2018-09-04T12:52:53.817Z,97922.38
2018-09-04T12:55:22.020Z,97919.14
2018-09-04T12:57:50.209Z,97919.16
2018-09-04T13:00:19.107Z,97918.55
2018-09-04T13:02:47.638Z,97919.53
2018-09-04T13:05:16.381Z,97918.53
2018-09-04T13:07:44.565Z,97915.55
2018-09-04T13:10:12.750Z,97917.12
2018-09-04T13:12:40.946Z,97918.94
2018-09-04T13:15:09.898Z,97921.55
2018-09-04T13:17:38.079Z,97918.15
2018-09-04T13:20:06.369Z,97921.98
2018-09-04T13:22:34.585Z,97925.18
2018-09-04T13:25:02.777Z,97923.37
2018-09-04T13:27:31.107Z,97918.77
2018-09-04T13:29:59.358Z,97906.70
2018-09-04T13:32:27.593Z,97904.07
2018-09-04T13:34:55.861Z,97907.52
2018-09-04T13:37:24.511Z,97907.68
2018-09-04T13:39:58.415Z,97900.20
2018-09-04T13:42:27.997Z,97907.44
2018-09-04T13:44:56.647Z,97901.47
2018-09-04T13:47:26.932Z,97900.21
2018-09-04T13:49:55.858Z,97896.29
2018-09-04T13:52:24.334Z,97897.05
2018-09-04T13:54:52.526Z,97896.69
2018-09-04T13:57:20.709Z,97891.94
2018-09-04T13:59:48.914Z,97888.17
2018-09-04T14:02:17.152Z,97892.11
2018-09-04T14:04:45.369Z,97893.94
2018-09-04T14:07:13.684Z,97896.44
2018-09-04T14:09:42.245Z,97888.92
2018-09-04T14:12:10.486Z,97893.11
2018-09-04T14:14:38.727Z,97882.05
2018-09-04T14:17:40.073Z,97882.97
2018-09-04T14:20:08.445Z,97886.75
2018-09-04T14:22:36.741Z,97885.25
2018-09-04T14:25:04.862Z,97885.40
2018-09-04T14:27:33.073Z,97881.58
2018-09-04T14:30:16.460Z,97878.77
2018-09-04T14:32:29.443Z,97886.61
2018-09-04T14:34:57.632Z,97879.14
2018-09-04T14:37:25.833Z,97879.73
2018-09-04T14:39:55.589Z,97889.63
2018-09-04T14:42:22.295Z,97887.33
2018-09-04T14:44:50.545Z,97885.44
2018-09-04T14:47:18.726Z,97888.69
2018-09-04T14:49:46.926Z,97887.39
2018-09-04T14:52:15.274Z,97884.45
2018-09-04T14:54:43.490Z,97888.56
2018-09-04T14:57:11.689Z,97881.37
2018-09-04T14:59:39.912Z,97882.27
2018-09-04T15:02:08.137Z,97885.20
2018-09-04T15:04:36.449Z,97883.43
2018-09-04T15:07:04.807Z,97880.69
2018-09-04T15:09:32.997Z,97878.77
2018-09-04T15:12:01.222Z,97871.37
2018-09-04T15:14:29.711Z,97868.31
2018-09-04T15:16:59.688Z,97864.12
2018-09-04T15:19:27.885Z,97866.97
2018-09-04T15:21:56.072Z,97867.26
2018-09-04T15:24:24.292Z,97864.62
2018-09-04T15:26:52.532Z,97869.97
2018-09-04T15:29:20.703Z,97869.16
2018-09-04T15:31:48.998Z,97876.42
2018-09-04T15:34:17.194Z,97877.52
2018-09-04T15:36:45.413Z,97878.11
2018-09-04T15:39:13.606Z,97870.08
2018-09-04T15:41:41.812Z,97875.66
2018-09-04T15:44:10.026Z,97879.85
2018-09-04T15:46:38.238Z,97874.48
2018-09-04T15:49:11.690Z,97878.53
2018-09-04T15:51:39.905Z,97874.07
2018-09-04T15:54:08.167Z,97876.34
2018-09-04T15:56:36.489Z,97865.28
2018-09-04T15:59:04.686Z,97866.02
2018-09-04T16:01:33.374Z,97862.16
2018-09-04T16:04:01.683Z,97862.74
2018-09-04T16:06:29.894Z,97866.55
2018-09-04T16:08:58.089Z,97871.27
2018-09-04T16:11:26.311Z,97873.00
2018-09-04T16:13:54.542Z,97877.60
2018-09-04T16:16:22.763Z,97881.10
2018-09-04T16:18:51.015Z,97874.84
2018-09-04T16:21:19.229Z,97873.51
2018-09-04T16:23:47.522Z,97876.13
2018-09-04T16:26:15.721Z,97879.92
2018-09-04T16:28:43.938Z,97882.59
2018-09-04T16:31:12.251Z,97886.00
2018-09-04T16:33:40.545Z,97885.84
2018-09-04T16:36:08.765Z,97883.63
2018-09-04T16:38:37.005Z,97884.51
2018-09-04T16:41:05.287Z,97886.34
2018-09-04T16:43:33.542Z,97889.92
2018-09-04T16:46:01.960Z,97885.88
2018-09-04T16:48:32.525Z,97888.34
2018-09-04T16:51:01.798Z,97897.61
2018-09-04T16:53:31.411Z,97893.01
2018-09-04T16:56:00.322Z,97896.06
2018-09-04T16:58:28.676Z,97895.67
2018-09-04T17:00:57.022Z,97889.59
2018-09-04T17:03:25.343Z,97894.82
2018-09-04T17:05:53.549Z,97895.02
2018-09-04T17:08:21.761Z,97890.18
2018-09-04T17:10:50.021Z,97895.44
2018-09-04T17:13:18.211Z,97890.03
2018-09-04T17:15:46.442Z,97892.63
2018-09-04T17:18:14.659Z,97893.45
2018-09-04T17:20:42.858Z,97893.47
2018-09-04T17:23:11.058Z,97896.08
2018-09-04T17:25:39.317Z,97906.70
2018-09-04T17:28:07.540Z,97904.90
2018-09-04T17:30:35.773Z,97908.30
2018-09-04T17:33:03.998Z,97909.08
2018-09-04T17:35:32.215Z,97915.69
2018-09-04T17:38:00.433Z,97915.28
2018-09-04T17:40:28.690Z,97915.45
2018-09-04T17:42:56.885Z,97918.44
2018-09-04T17:45:25.099Z,97920.83
2018-09-04T17:47:53.342Z,97923.21
2018-09-04T17:50:21.489Z,97929.40
2018-09-04T17:52:50.722Z,97929.98
2018-09-04T17:55:18.978Z,97932.35
2018-09-04T17:57:47.223Z,97933.92
2018-09-04T18:00:15.418Z,97938.69
2018-09-04T18:02:43.601Z,97937.88
2018-09-04T18:05:11.794Z,97935.25
2018-09-04T18:07:40.277Z,97930.82
2018-09-04T18:10:47.437Z,97937.21
2018-09-04T18:13:16.014Z,97929.73
2018-09-04T18:15:44.201Z,97938.69
2018-09-04T18:18:12.491Z,97942.47
2018-09-04T18:20:40.767Z,97942.65
2018-09-04T18:23:09.066Z,97946.21
2018-09-04T18:25:37.441Z,97949.58
2018-09-04T18:28:05.634Z,97950.37
2018-09-04T18:30:33.934Z,97951.36
2018-09-04T18:33:05.108Z,97961.31
2018-09-04T18:35:33.317Z,97964.67
2018-09-04T18:38:01.549Z,97963.28
2018-09-04T18:40:29.838Z,97969.11
2018-09-04T18:42:58.025Z,97969.11
2018-09-04T18:45:40.922Z,97980.91
2018-09-04T18:48:09.157Z,97969.59
2018-09-04T18:50:37.469Z,97985.56
2018-09-04T18:53:05.870Z,97994.36
2018-09-04T18:55:34.057Z,97989.42
2018-09-04T18:58:02.385Z,97991.18
2018-09-04T19:00:30.613Z,97993.72
2018-09-04T19:02:58.896Z,98002.09
2018-09-04T19:05:27.580Z,97993.86
2018-09-04T19:07:56.049Z,97999.68
2018-09-04T19:10:24.453Z,97998.22
2018-09-04T19:12:53.245Z,98007.20
2018-09-04T19:15:21.575Z,98002.16
2018-09-04T19:17:49.841Z,98000.07
2018-09-04T19:20:18.115Z,97996.72
2018-09-04T19:22:46.846Z,97999.45
2018-09-04T19:25:15.790Z,98001.40
2018-09-04T19:27:44.073Z,97993.81
2018-09-04T19:30:12.978Z,97996.48
2018-09-04T19:32:41.321Z,97989.52
2018-09-04T19:35:09.604Z,97991.80
2018-09-04T19:37:38.150Z,97991.77
2018-09-04T19:40:06.577Z,97984.91
2018-09-04T19:42:34.793Z,97990.47
2018-09-04T19:45:03.357Z,97994.59
2018-09-04T19:47:31.654Z,97995.11
2018-09-04T19:50:00.078Z,97995.66
2018-09-04T19:52:28.449Z,97987.23
2018-09-04T19:54:56.878Z,97993.56
2018-09-04T19:57:25.092Z,97997.77
2018-09-04T19:59:53.357Z,97997.34
2018-09-04T20:02:21.639Z,98002.04
2018-09-04T20:04:49.913Z,98006.20
2018-09-04T20:07:18.189Z,98000.72
2018-09-04T20:09:46.390Z,98005.38
2018-09-04T20:12:14.694Z,98005.91
2018-09-04T20:14:42.957Z,98004.82
2018-09-04T20:17:11.266Z,98009.11
2018-09-04T20:19:39.529Z,98010.03
2018-09-04T20:22:08.393Z,98008.97
2018-09-04T20:24:36.638Z,98013.02
2018-09-04T20:27:04.965Z,98012.15
2018-09-04T20:29:33.311Z,98012.98
2018-09-04T20:32:01.558Z,98011.41
2018-09-04T20:34:29.818Z,98011.69
2018-09-04T20:36:58.263Z,98015.98
2018-09-04T20:39:26.569Z,98011.98
2018-09-04T20:41:55.270Z,98012.17
2018-09-04T20:44:23.563Z,98016.75
2018-09-04T20:46:51.841Z,98016.19
2018-09-04T20:49:20.183Z,98017.66
2018-09-04T20:51:48.921Z,98016.47
2018-09-04T20:54:17.390Z,98021.72
2018-09-04T20:57:26.879Z,98021.08
2018-09-04T21:00:07.729Z,97998.52
2018-09-04T21:02:47.374Z,98021.34
2018-09-04T21:05:27.637Z,98023.24
2018-09-04T21:08:14.977Z,98020.39
2018-09-04T21:10:43.616Z,98014.58
2018-09-04T21:13:12.594Z,98022.26
2018-09-04T21:15:40.849Z,98020.42
2018-09-04T21:18:09.178Z,98021.44
2018-09-04T21:20:37.384Z,98017.02
2018-09-04T21:23:05.722Z,98007.52
2018-09-04T21:25:33.977Z,98021.06
2018-09-04T21:28:02.250Z,98023.33
2018-09-04T21:30:30.559Z,98026.70
2018-09-04T21:32:58.953Z,98029.11
2018-09-04T21:35:27.268Z,98026.47
2018-09-04T21:37:55.517Z,98020.45
2018-09-04T21:40:23.742Z,98020.94
2018-09-04T21:42:51.951Z,98018.24
2018-09-04T21:45:20.257Z,98016.56
2018-09-04T21:47:48.585Z,98021.08
2018-09-04T21:50:16.738Z,98026.81
2018-09-04T21:52:44.929Z,98024.34
2018-09-04T21:55:13.190Z,98026.67
2018-09-04T21:57:41.382Z,98018.81
2018-09-04T22:00:10.149Z,98024.69
2018-09-04T22:02:38.450Z,98027.05
2018-09-04T22:05:06.852Z,98034.35
2018-09-04T22:07:35.648Z,98026.43
2018-09-04T22:10:03.929Z,98022.43
2018-09-04T22:12:32.188Z,98022.67
2018-09-04T22:15:00.493Z,98020.06
2018-09-04T22:17:28.767Z,98026.70
2018-09-04T22:19:56.977Z,98019.17
2018-09-04T22:22:25.206Z,98023.33
2018-09-04T22:24:53.517Z,98026.61
2018-09-04T22:27:21.761Z,98028.59
2018-09-04T22:29:49.969Z,98023.33
2018-09-04T22:32:18.277Z,98026.87
2018-09-04T22:34:47.598Z,98006.36
2018-09-04T22:37:15.873Z,98022.93
2018-09-04T22:39:44.120Z,98033.97
2018-09-04T22:42:12.389Z,98028.24
2018-09-04T22:44:40.610Z,98031.69
2018-09-04T22:47:08.834Z,98025.98
2018-09-04T22:49:37.659Z,98031.33
2018-09-04T22:52:05.905Z,98024.21
2018-09-04T22:54:34.178Z,98025.17
2018-09-04T22:57:02.449Z,98025.24
2018-09-04T22:59:30.657Z,98022.76
2018-09-04T23:01:58.929Z,98019.59
2018-09-04T23:04:27.230Z,98019.52
2018-09-04T23:06:55.511Z,98016.43
2018-09-04T23:09:23.809Z,98022.69
2018-09-04T23:11:52.098Z,98026.03
2018-09-04T23:14:20.369Z,98024.43
2018-09-04T23:16:48.570Z,98022.19
2018-09-04T23:19:16.861Z,98020.55
2018-09-04T23:21:45.150Z,98026.03
2018-09-04T23:24:13.501Z,98024.22
2018-09-04T23:26:41.674Z,98023.84
2018-09-04T23:29:09.870Z,98023.47
2018-09-04T23:31:38.086Z,98025.69
2018-09-04T23:34:06.520Z,98029.49
2018-09-04T23:36:34.761Z,98026.20
2018-09-04T23:39:17.072Z,98028.17
2018-09-04T23:41:47.403Z,98023.55
2018-09-04T23:44:15.669Z,98027.80
2018-09-04T23:46:43.880Z,98025.01
2018-09-04T23:49:12.764Z,98020.62
2018-09-04T23:51:41.010Z,98023.11
2018-09-04T23:54:09.306Z,98020.55
2018-09-04T23:56:37.597Z,98023.92
2018-09-04T23:59:05.905Z,98025.01
